createdAt,value
2018-07-07T00:01:34.156Z,100939.23
2018-07-07T00:06:41.964Z,100941.55
2018-07-07T00:09:05.430Z,100951.48
2018-07-07T00:13:47.563Z,100942.24
2018-07-07T00:16:25.705Z,100942.48
2018-07-07T00:19:27.478Z,100952.18
2018-07-07T00:21:51.543Z,100951.67
2018-07-07T00:24:17.933Z,100949.11
2018-07-07T00:29:48.348Z,100946.39
2018-07-07T00:31:57.436Z,100950.02
2018-07-07T00:34:02.900Z,100944.95
2018-07-07T00:36:08.458Z,100950.28
2018-07-07T00:38:13.787Z,100945.70
2018-07-07T00:40:19.240Z,100947.88
2018-07-07T00:42:24.575Z,100943.95
2018-07-07T00:44:30.184Z,100944.20
2018-07-07T00:46:35.478Z,100938.36
2018-07-07T00:48:40.872Z,100944.14
2018-07-07T00:50:46.673Z,100948.49
2018-07-07T00:52:52.533Z,100949.69
2018-07-07T00:54:58.300Z,100949.31
2018-07-07T00:57:03.964Z,100955.23
2018-07-07T00:59:09.731Z,100959.37
2018-07-07T01:01:15.000Z,100954.99
2018-07-07T01:03:20.896Z,100952.70
2018-07-07T01:05:36.204Z,100951.61
2018-07-07T01:07:42.014Z,100948.09
2018-07-07T01:09:47.570Z,100949.42
2018-07-07T01:11:52.916Z,100950.27
2018-07-07T01:13:58.233Z,100951.13
2018-07-07T01:16:03.567Z,100947.40
2018-07-07T01:18:09.214Z,100953.21
2018-07-07T01:20:14.542Z,100951.23
2018-07-07T01:22:20.209Z,100959.58
2018-07-07T01:24:25.670Z,100958.11
2018-07-07T01:26:30.681Z,100956.73
2018-07-07T01:28:35.571Z,100962.31
2018-07-07T01:30:40.830Z,100964.70
2018-07-07T01:32:46.085Z,100961.05
2018-07-07T01:34:51.110Z,100954.72
2018-07-07T01:36:56.670Z,100962.77
2018-07-07T01:39:02.495Z,100960.53
2018-07-07T01:41:08.246Z,100961.27
2018-07-07T01:43:13.889Z,100964.70
2018-07-07T01:45:19.486Z,100968.51
2018-07-07T01:47:25.149Z,100966.70
2018-07-07T01:49:30.952Z,100965.98
2018-07-07T01:51:36.595Z,100967.30
2018-07-07T01:53:41.913Z,100965.13
2018-07-07T01:55:47.534Z,100970.31
2018-07-07T01:57:53.222Z,100965.64
2018-07-07T01:59:58.224Z,100968.73
2018-07-07T02:02:03.167Z,100970.94
2018-07-07T02:04:08.111Z,100964.55
2018-07-07T02:06:13.368Z,100964.08
2018-07-07T02:08:18.681Z,100958.89
2018-07-07T02:10:24.023Z,100963.06
2018-07-07T02:12:29.357Z,100964.20
2018-07-07T02:14:34.628Z,100961.25
2018-07-07T02:16:40.044Z,100960.78
2018-07-07T02:18:45.417Z,100963.83
2018-07-07T02:20:50.709Z,100967.72
2018-07-07T02:22:56.038Z,100966.86
2018-07-07T02:25:01.015Z,100969.16
2018-07-07T02:27:06.263Z,100966.48
2018-07-07T02:29:11.576Z,100967.97
2018-07-07T02:31:16.902Z,100970.53
2018-07-07T02:33:22.279Z,100970.05
2018-07-07T02:35:28.051Z,100972.23
2018-07-07T02:37:33.693Z,100966.05
2018-07-07T02:39:39.365Z,100972.72
2018-07-07T02:41:44.697Z,100975.11
2018-07-07T02:43:50.347Z,100967.82
2018-07-07T02:45:56.270Z,100971.34
2018-07-07T02:48:01.383Z,100967.27
2018-07-07T02:50:06.612Z,100967.27
2018-07-07T02:52:11.930Z,100973.01
2018-07-07T02:54:17.269Z,100970.03
2018-07-07T02:56:22.599Z,100966.27
2018-07-07T02:58:27.932Z,100970.74
2018-07-07T03:00:33.245Z,100971.22
2018-07-07T03:04:42.386Z,100963.33
2018-07-07T03:06:47.692Z,100969.98
2018-07-07T03:08:53.037Z,100975.80
2018-07-07T03:10:58.375Z,100973.84
2018-07-07T03:13:03.713Z,100975.41
2018-07-07T03:15:09.012Z,100973.94
2018-07-07T03:17:14.434Z,100975.41
2018-07-07T03:19:19.710Z,100970.02
2018-07-07T03:21:25.183Z,100971.30
2018-07-07T03:23:30.498Z,100970.17
2018-07-07T03:25:35.870Z,100974.39
2018-07-07T03:27:42.154Z,100975.06
2018-07-07T03:29:47.429Z,100972.38
2018-07-07T03:31:52.797Z,100976.57
2018-07-07T03:33:58.151Z,100977.66
2018-07-07T03:36:03.877Z,100979.66
2018-07-07T03:38:09.262Z,100975.89
2018-07-07T03:40:14.602Z,100979.12
2018-07-07T03:42:20.009Z,100987.23
2018-07-07T03:44:25.271Z,100985.78
2018-07-07T03:46:32.340Z,100988.83
2018-07-07T03:48:37.817Z,100987.11
2018-07-07T03:50:43.449Z,100991.70
2018-07-07T03:52:48.845Z,100994.94
2018-07-07T03:54:54.330Z,100990.56
2018-07-07T03:56:59.476Z,100992.00
2018-07-07T03:59:04.992Z,100994.41
2018-07-07T04:01:10.560Z,100989.55
2018-07-07T04:03:16.158Z,100994.50
2018-07-07T04:05:21.740Z,100995.96
2018-07-07T04:07:27.353Z,100996.05
2018-07-07T04:09:33.413Z,100999.29
2018-07-07T04:11:39.013Z,101003.76
2018-07-07T04:13:44.630Z,100998.81
2018-07-07T04:15:50.360Z,100999.42
2018-07-07T04:17:55.707Z,101001.80
2018-07-07T04:20:01.259Z,100997.22
2018-07-07T04:22:06.942Z,101005.44
2018-07-07T04:24:12.532Z,101007.72
2018-07-07T04:26:18.048Z,101003.72
2018-07-07T04:28:23.673Z,101000.11
2018-07-07T04:30:29.273Z,101005.31
2018-07-07T04:32:34.869Z,100999.13
2018-07-07T04:34:40.578Z,101000.45
2018-07-07T04:36:46.290Z,101008.12
2018-07-07T04:38:51.863Z,101003.28
2018-07-07T04:40:57.593Z,101001.29
2018-07-07T04:43:02.890Z,101007.78
2018-07-07T04:45:08.740Z,101003.95
2018-07-07T04:47:14.290Z,101003.91
2018-07-07T04:49:19.813Z,101005.17
2018-07-07T04:51:25.562Z,101002.56
2018-07-07T04:53:31.185Z,100998.62
2018-07-07T04:55:36.823Z,100998.20
2018-07-07T04:57:42.461Z,101004.34
2018-07-07T05:01:52.504Z,101007.92
2018-07-07T05:03:58.230Z,101010.67
2018-07-07T05:06:04.020Z,101017.61
2018-07-07T05:08:09.362Z,101015.09
2018-07-07T05:10:15.562Z,101013.91
2018-07-07T05:12:20.881Z,101022.43
2018-07-07T05:14:26.583Z,101016.28
2018-07-07T05:16:32.532Z,101013.94
2018-07-07T05:18:38.374Z,101020.03
2018-07-07T05:20:44.037Z,101019.22
2018-07-07T05:22:49.738Z,101015.77
2018-07-07T05:24:55.091Z,101013.48
2018-07-07T05:27:00.502Z,101012.66
2018-07-07T05:29:05.547Z,101013.66
2018-07-07T05:31:10.775Z,101011.62
2018-07-07T05:33:16.265Z,101013.10
2018-07-07T05:35:21.623Z,101011.11
2018-07-07T05:37:26.951Z,101005.22
2018-07-07T05:39:32.320Z,101016.77
2018-07-07T05:41:38.224Z,101008.52
2018-07-07T05:43:43.887Z,101004.79
2018-07-07T05:45:49.188Z,101005.77
2018-07-07T05:47:54.726Z,101004.19
2018-07-07T05:50:00.465Z,101003.23
2018-07-07T05:52:06.118Z,101008.70
2018-07-07T05:54:11.871Z,101011.77
2018-07-07T05:56:17.513Z,101007.99
2018-07-07T05:58:22.785Z,101015.55
2018-07-07T06:00:28.216Z,101015.56
2018-07-07T06:02:33.784Z,101011.68
2018-07-07T06:04:39.491Z,101012.44
2018-07-07T06:06:45.075Z,101016.13
2018-07-07T06:08:50.660Z,101020.73
2018-07-07T06:10:56.194Z,101021.02
2018-07-07T06:13:01.809Z,101017.51
2018-07-07T06:15:08.503Z,101015.94
2018-07-07T06:17:13.800Z,101011.33
2018-07-07T06:19:19.510Z,101017.69
2018-07-07T06:21:25.101Z,101012.81
2018-07-07T06:23:30.804Z,101013.80
2018-07-07T06:25:36.436Z,101015.88
2018-07-07T06:27:42.064Z,101012.09
2018-07-07T06:29:47.647Z,101018.42
2018-07-07T06:31:52.955Z,101015.45
2018-07-07T06:33:58.303Z,101015.30
2018-07-07T06:36:03.728Z,101010.33
2018-07-07T06:38:09.233Z,101013.09
2018-07-07T06:40:14.736Z,101019.03
2018-07-07T06:42:20.423Z,101016.25
2018-07-07T06:44:26.043Z,101020.58
2018-07-07T06:46:31.449Z,101014.38
2018-07-07T06:48:37.162Z,101007.09
2018-07-07T06:50:42.835Z,101019.38
2018-07-07T06:52:48.504Z,101021.35
2018-07-07T06:54:54.099Z,101022.30
2018-07-07T06:56:59.714Z,101025.69
2018-07-07T06:59:05.078Z,101020.36
2018-07-07T07:01:10.427Z,101021.08
2018-07-07T07:03:15.772Z,101023.63
2018-07-07T07:05:21.092Z,101020.09
2018-07-07T07:07:26.554Z,101020.09
2018-07-07T07:09:32.130Z,101021.85
2018-07-07T07:11:37.403Z,101011.45
2018-07-07T07:13:42.994Z,101016.20
2018-07-07T07:15:48.577Z,101011.84
2018-07-07T07:17:54.145Z,101013.39
2018-07-07T07:19:59.858Z,101013.58
2018-07-07T07:22:05.478Z,101015.14
2018-07-07T07:24:11.150Z,101011.60
2018-07-07T07:26:16.816Z,101012.95
2018-07-07T07:28:22.347Z,101015.25
2018-07-07T07:30:28.040Z,101014.05
2018-07-07T07:32:33.518Z,101008.06
2018-07-07T07:34:39.153Z,101007.07
2018-07-07T07:36:48.013Z,101003.55
2018-07-07T07:38:54.376Z,101004.44
2018-07-07T07:41:00.298Z,101000.92
2018-07-07T07:43:05.634Z,100999.94
2018-07-07T07:45:11.069Z,100999.23
2018-07-07T07:47:16.548Z,100990.73
2018-07-07T07:49:22.147Z,100994.11
2018-07-07T07:51:28.062Z,100989.66
2018-07-07T07:53:33.705Z,100990.45
2018-07-07T07:55:39.455Z,100985.38
2018-07-07T07:57:45.085Z,100988.45
2018-07-07T07:59:50.597Z,100991.91
2018-07-07T08:01:56.057Z,100987.86
2018-07-07T08:04:01.237Z,100984.04
2018-07-07T08:06:06.879Z,100990.63
2018-07-07T08:08:12.606Z,100984.38
2018-07-07T08:10:18.019Z,100991.66
2018-07-07T08:12:23.451Z,100993.46
2018-07-07T08:14:28.768Z,100988.38
2018-07-07T08:16:34.404Z,100994.16
2018-07-07T08:18:40.076Z,100996.63
2018-07-07T08:20:45.829Z,100985.60
2018-07-07T08:22:51.648Z,100992.00
2018-07-07T08:24:57.321Z,100993.36
2018-07-07T08:27:03.216Z,100990.33
2018-07-07T08:29:11.234Z,100984.56
2018-07-07T08:31:17.762Z,100991.44
2018-07-07T08:33:24.501Z,100987.87
2018-07-07T08:35:30.545Z,100987.47
2018-07-07T08:37:39.193Z,100985.42
2018-07-07T08:39:44.786Z,100989.66
2018-07-07T08:41:50.630Z,100993.52
2018-07-07T08:43:56.438Z,100997.40
2018-07-07T08:46:01.714Z,100991.31
2018-07-07T08:48:07.500Z,100985.75
2018-07-07T08:50:13.259Z,100993.35
2018-07-07T08:52:18.818Z,100990.28
2018-07-07T08:54:24.319Z,100987.09
2018-07-07T08:56:29.896Z,100989.80
2018-07-07T08:58:35.584Z,100992.48
2018-07-07T09:00:41.194Z,100994.63
2018-07-07T09:02:46.853Z,100989.73
2018-07-07T09:04:52.396Z,100986.11
2018-07-07T09:06:57.970Z,100986.87
2018-07-07T09:09:03.678Z,100985.05
2018-07-07T09:11:09.811Z,100985.89
2018-07-07T09:13:15.448Z,100989.29
2018-07-07T09:15:20.626Z,100992.14
2018-07-07T09:17:26.212Z,100986.37
2018-07-07T09:19:32.013Z,100986.19
2018-07-07T09:21:37.681Z,100985.33
2018-07-07T09:23:43.232Z,100984.32
2018-07-07T09:25:48.742Z,100980.27
2018-07-07T09:27:54.371Z,100979.12
2018-07-07T09:30:00.134Z,100983.83
2018-07-07T09:32:05.839Z,100982.81
2018-07-07T09:34:11.479Z,100985.82
2018-07-07T09:36:17.434Z,100984.52
2018-07-07T09:38:23.032Z,100981.14
2018-07-07T09:40:28.595Z,100987.88
2018-07-07T09:42:34.289Z,100978.69
2018-07-07T09:44:39.883Z,100986.78
2018-07-07T09:46:45.505Z,100977.77
2018-07-07T09:48:51.054Z,100980.30
2018-07-07T09:50:56.494Z,100977.14
2018-07-07T09:53:01.904Z,100975.12
2018-07-07T09:55:07.347Z,100976.17
2018-07-07T09:57:12.715Z,100973.47
2018-07-07T09:59:18.088Z,100967.22
2018-07-07T10:01:23.443Z,100968.27
2018-07-07T10:03:28.814Z,100971.14
2018-07-07T10:05:34.332Z,100976.53
2018-07-07T10:07:39.741Z,100977.73
2018-07-07T10:09:45.154Z,100976.03
2018-07-07T10:11:50.711Z,100977.88
2018-07-07T10:13:55.724Z,100975.69
2018-07-07T10:16:00.635Z,100978.08
2018-07-07T10:18:06.184Z,100978.03
2018-07-07T10:20:11.528Z,100972.13
2018-07-07T10:22:16.904Z,100973.13
2018-07-07T10:24:22.224Z,100975.67
2018-07-07T10:26:27.614Z,100970.27
2018-07-07T10:28:32.983Z,100977.52
2018-07-07T10:30:38.325Z,100972.60
2018-07-07T10:32:43.927Z,100977.78
2018-07-07T10:34:49.316Z,100973.97
2018-07-07T10:36:54.335Z,100969.70
2018-07-07T10:38:59.682Z,100977.58
2018-07-07T10:41:05.040Z,100972.02
2018-07-07T10:43:10.524Z,100967.48
2018-07-07T10:45:16.521Z,100970.55
2018-07-07T10:47:21.922Z,100971.42
2018-07-07T10:49:27.471Z,100969.08
2018-07-07T10:51:32.810Z,100966.36
2018-07-07T10:53:38.119Z,100962.97
2018-07-07T10:55:43.455Z,100959.77
2018-07-07T10:57:48.898Z,100964.15
2018-07-07T10:59:54.316Z,100961.81
2018-07-07T11:01:59.756Z,100967.38
2018-07-07T11:04:05.161Z,100960.47
2018-07-07T11:06:10.541Z,100952.03
2018-07-07T11:08:15.939Z,100955.48
2018-07-07T11:10:21.284Z,100944.69
2018-07-07T11:12:26.717Z,100953.48
2018-07-07T11:14:32.088Z,100949.79
2018-07-07T11:16:37.485Z,100948.75
2018-07-07T11:18:43.183Z,100947.10
2018-07-07T11:20:48.563Z,100932.61
2018-07-07T11:22:54.363Z,100936.81
2018-07-07T11:24:59.738Z,100932.11
2018-07-07T11:27:05.200Z,100941.94
2018-07-07T11:29:10.599Z,100933.53
2018-07-07T11:31:15.992Z,100935.08
2018-07-07T11:33:21.377Z,100929.17
2018-07-07T11:35:26.779Z,100930.20
2018-07-07T11:37:32.312Z,100929.74
2018-07-07T11:39:37.705Z,100928.70
2018-07-07T11:41:43.117Z,100930.09
2018-07-07T11:43:48.488Z,100929.39
2018-07-07T11:45:53.519Z,100923.33
2018-07-07T11:47:58.778Z,100912.52
2018-07-07T11:50:04.455Z,100910.84
2018-07-07T11:52:09.887Z,100908.97
2018-07-07T11:54:15.517Z,100907.97
2018-07-07T11:56:20.885Z,100911.67
2018-07-07T11:58:26.254Z,100900.20
2018-07-07T12:00:31.649Z,100902.24
2018-07-07T12:02:37.058Z,100907.45
2018-07-07T12:04:42.867Z,100908.67
2018-07-07T12:06:48.142Z,100905.81
2018-07-07T12:08:53.323Z,100904.95
2018-07-07T12:10:58.566Z,100899.89
2018-07-07T12:13:03.915Z,100904.97
2018-07-07T12:15:09.348Z,100896.15
2018-07-07T12:17:14.728Z,100894.12
2018-07-07T12:19:20.168Z,100891.08
2018-07-07T12:21:25.556Z,100891.22
2018-07-07T12:23:30.942Z,100888.20
2018-07-07T12:25:36.361Z,100888.03
2018-07-07T12:27:41.769Z,100879.42
2018-07-07T12:29:47.213Z,100875.53
2018-07-07T12:31:52.737Z,100881.96
2018-07-07T12:33:58.133Z,100880.11
2018-07-07T12:36:03.515Z,100871.85
2018-07-07T12:38:08.990Z,100872.69
2018-07-07T12:40:14.313Z,100869.80
2018-07-07T12:42:20.056Z,100868.94
2018-07-07T12:44:25.432Z,100873.66
2018-07-07T12:46:31.053Z,100874.66
2018-07-07T12:48:36.501Z,100870.27
2018-07-07T12:50:41.913Z,100873.97
2018-07-07T12:52:47.337Z,100864.35
2018-07-07T12:54:52.716Z,100870.94
2018-07-07T12:56:58.035Z,100866.88
2018-07-07T12:59:04.215Z,100870.27
2018-07-07T13:01:09.625Z,100869.41
2018-07-07T13:03:14.978Z,100875.16
2018-07-07T13:05:20.373Z,100865.51
2018-07-07T13:07:25.769Z,100876.99
2018-07-07T13:09:31.144Z,100863.81
2018-07-07T13:11:36.860Z,100858.55
2018-07-07T13:13:42.406Z,100857.86
2018-07-07T13:15:47.758Z,100853.92
2018-07-07T13:17:53.113Z,100857.45
2018-07-07T13:19:58.483Z,100850.99
2018-07-07T13:22:03.864Z,100851.00
2018-07-07T13:24:09.308Z,100849.08
2018-07-07T13:26:14.702Z,100847.39
2018-07-07T13:28:20.048Z,100849.45
2018-07-07T13:30:25.393Z,100854.86
2018-07-07T13:32:30.852Z,100857.91
2018-07-07T13:34:36.304Z,100856.87
2018-07-07T13:36:41.704Z,100858.02
2018-07-07T13:38:47.135Z,100859.86
2018-07-07T13:40:52.463Z,100857.83
2018-07-07T13:42:57.846Z,100849.56
2018-07-07T13:45:03.518Z,100852.75
2018-07-07T13:47:09.390Z,100860.53
2018-07-07T13:49:14.776Z,100851.06
2018-07-07T13:51:20.151Z,100850.86
2018-07-07T13:53:25.661Z,100841.03
2018-07-07T13:55:33.919Z,100843.58
2018-07-07T13:57:39.377Z,100847.61
2018-07-07T13:59:44.728Z,100841.47
2018-07-07T14:01:50.045Z,100846.05
2018-07-07T14:03:55.511Z,100854.37
2018-07-07T14:06:00.804Z,100843.98
2018-07-07T14:08:06.220Z,100841.27
2018-07-07T14:10:11.631Z,100835.55
2018-07-07T14:12:17.046Z,100836.22
2018-07-07T14:14:22.468Z,100840.45
2018-07-07T14:16:27.850Z,100830.95
2018-07-07T14:18:33.269Z,100832.80
2018-07-07T14:20:38.691Z,100841.88
2018-07-07T14:22:44.059Z,100833.76
2018-07-07T14:24:49.450Z,100835.21
2018-07-07T14:26:54.788Z,100824.55
2018-07-07T14:29:00.085Z,100822.48
2018-07-07T14:31:12.057Z,100828.73
2018-07-07T14:33:17.413Z,100827.89
2018-07-07T14:35:22.977Z,100828.02
2018-07-07T14:37:28.369Z,100831.23
2018-07-07T14:39:56.098Z,100824.26
2018-07-07T14:42:24.551Z,100825.91
2018-07-07T14:44:29.867Z,100831.20
2018-07-07T14:46:35.993Z,100827.34
2018-07-07T14:48:41.392Z,100827.69
2018-07-07T14:50:46.844Z,100828.40
2018-07-07T14:52:52.327Z,100829.04
2018-07-07T14:54:57.667Z,100829.55
2018-07-07T14:57:03.076Z,100822.73
2018-07-07T14:59:08.529Z,100831.50
2018-07-07T15:01:13.925Z,100827.56
2018-07-07T15:03:19.290Z,100832.12
2018-07-07T15:05:24.704Z,100822.12
2018-07-07T15:07:30.109Z,100819.38
2018-07-07T15:09:35.474Z,100822.77
2018-07-07T15:11:41.665Z,100822.44
2018-07-07T15:13:48.346Z,100825.73
2018-07-07T15:16:19.129Z,100826.16
2018-07-07T15:18:26.553Z,100824.47
2018-07-07T15:20:31.994Z,100819.56
2018-07-07T15:22:37.509Z,100814.68
2018-07-07T15:24:43.100Z,100814.17
2018-07-07T15:26:48.503Z,100811.88
2018-07-07T15:28:54.086Z,100821.27
2018-07-07T15:30:59.477Z,100817.06
2018-07-07T15:33:05.036Z,100824.13
2018-07-07T15:35:10.491Z,100822.98
2018-07-07T15:37:15.905Z,100817.95
2018-07-07T15:39:21.287Z,100817.97
2018-07-07T15:41:26.651Z,100818.50
2018-07-07T15:43:32.109Z,100818.85
2018-07-07T15:45:37.486Z,100819.89
2018-07-07T15:47:42.885Z,100809.09
2018-07-07T15:49:48.293Z,100809.09
2018-07-07T15:51:53.712Z,100809.27
2018-07-07T15:53:59.129Z,100800.93
2018-07-07T15:56:04.543Z,100803.28
2018-07-07T15:58:10.005Z,100799.85
2018-07-07T16:00:15.539Z,100802.87
2018-07-07T16:02:21.039Z,100800.34
2018-07-07T16:04:26.472Z,100794.09
2018-07-07T16:06:31.939Z,100794.59
2018-07-07T16:08:37.445Z,100790.88
2018-07-07T16:10:42.938Z,100794.91
2018-07-07T16:12:48.297Z,100795.72
2018-07-07T16:14:53.778Z,100789.80
2018-07-07T16:16:59.169Z,100791.87
2018-07-07T16:19:04.718Z,100786.14
2018-07-07T16:21:10.121Z,100786.81
2018-07-07T16:23:15.596Z,100786.16
2018-07-07T16:25:21.027Z,100783.78
2018-07-07T16:27:26.440Z,100775.19
2018-07-07T16:29:31.867Z,100783.47
2018-07-07T16:31:37.263Z,100774.03
2018-07-07T16:33:43.310Z,100776.92
2018-07-07T16:35:48.382Z,100774.08
2018-07-07T16:37:53.706Z,100771.05
2018-07-07T16:39:59.362Z,100778.17
2018-07-07T16:42:04.826Z,100773.64
2018-07-07T16:44:10.277Z,100774.34
2018-07-07T16:46:15.750Z,100779.22
2018-07-07T16:48:21.436Z,100773.16
2018-07-07T16:50:26.810Z,100772.97
2018-07-07T16:52:32.205Z,100768.75
2018-07-07T16:54:38.244Z,100772.64
2018-07-07T16:56:43.263Z,100769.25
2018-07-07T16:58:51.802Z,100767.88
2018-07-07T17:00:59.910Z,100773.63
2018-07-07T17:03:06.244Z,100764.50
2018-07-07T17:05:11.776Z,100761.92
2018-07-07T17:07:17.302Z,100765.14
2018-07-07T17:09:22.891Z,100766.63
2018-07-07T17:11:28.462Z,100762.07
2018-07-07T17:13:33.999Z,100762.91
2018-07-07T17:15:39.426Z,100764.61
2018-07-07T17:17:45.622Z,100760.02
2018-07-07T17:19:50.999Z,100763.71
2018-07-07T17:21:56.477Z,100765.75
2018-07-07T17:24:02.284Z,100766.93
2018-07-07T17:26:08.167Z,100765.91
2018-07-07T17:28:14.107Z,100764.08
2018-07-07T17:30:21.269Z,100766.30
2018-07-07T17:32:26.691Z,100759.22
2018-07-07T17:34:32.180Z,100764.94
2018-07-07T17:36:37.948Z,100765.78
2018-07-07T17:38:43.627Z,100764.09
2018-07-07T17:40:48.744Z,100767.50
2018-07-07T17:42:54.081Z,100765.63
2018-07-07T17:45:01.044Z,100763.63
2018-07-07T17:47:06.659Z,100765.86
2018-07-07T17:49:12.071Z,100767.05
2018-07-07T17:51:17.864Z,100769.77
2018-07-07T17:53:23.488Z,100767.91
2018-07-07T17:55:29.196Z,100766.06
2018-07-07T17:57:35.262Z,100766.05
2018-07-07T17:59:40.880Z,100774.84
2018-07-07T18:01:46.464Z,100768.94
2018-07-07T18:03:52.606Z,100771.83
2018-07-07T18:05:58.008Z,100768.45
2018-07-07T18:08:03.360Z,100769.32
2018-07-07T18:10:08.918Z,100773.05
2018-07-07T18:12:14.400Z,100768.16
2018-07-07T18:14:19.980Z,100771.88
2018-07-07T18:16:25.600Z,100769.62
2018-07-07T18:18:31.131Z,100770.31
2018-07-07T18:20:36.780Z,100774.03
2018-07-07T18:22:42.479Z,100775.20
2018-07-07T18:24:48.001Z,100772.32
2018-07-07T18:26:53.517Z,100772.33
2018-07-07T18:28:58.955Z,100767.59
2018-07-07T18:31:04.449Z,100765.20
2018-07-07T18:33:09.812Z,100772.23
2018-07-07T18:35:15.329Z,100774.27
2018-07-07T18:37:20.954Z,100779.13
2018-07-07T18:39:26.052Z,100781.66
2018-07-07T18:41:31.366Z,100786.36
2018-07-07T18:43:36.711Z,100785.31
2018-07-07T18:45:42.249Z,100789.85
2018-07-07T18:47:47.847Z,100784.61
2018-07-07T18:49:52.926Z,100787.80
2018-07-07T18:51:58.232Z,100789.29
2018-07-07T18:54:03.735Z,100787.09
2018-07-07T18:56:09.341Z,100790.42
2018-07-07T18:58:14.853Z,100790.18
2018-07-07T19:00:20.357Z,100786.81
2018-07-07T19:02:25.952Z,100794.53
2018-07-07T19:04:31.479Z,100795.52
2018-07-07T19:06:37.093Z,100797.14
2018-07-07T19:08:42.252Z,100794.78
2018-07-07T19:10:47.748Z,100798.77
2018-07-07T19:12:53.295Z,100798.11
2018-07-07T19:15:03.907Z,100798.60
2018-07-07T19:17:09.383Z,100796.20
2018-07-07T19:19:15.055Z,100796.04
2018-07-07T19:23:27.628Z,100806.32
2018-07-07T19:25:38.446Z,100794.30
2018-07-07T19:27:43.968Z,100805.39
2018-07-07T19:29:49.417Z,100802.05
2018-07-07T19:32:00.130Z,100805.09
2018-07-07T19:34:10.614Z,100803.75
2018-07-07T19:36:21.254Z,100811.84
2018-07-07T19:38:26.675Z,100812.68
2018-07-07T19:40:35.172Z,100816.72
2018-07-07T19:42:40.581Z,100817.72
2018-07-07T19:44:46.084Z,100826.30
2018-07-07T19:46:51.614Z,100824.31
2018-07-07T19:48:57.039Z,100822.63
2018-07-07T19:51:02.453Z,100833.08
2018-07-07T19:53:08.006Z,100828.05
2018-07-07T19:55:13.435Z,100830.92
2018-07-07T19:57:18.781Z,100827.52
2018-07-07T19:59:24.299Z,100828.02
2018-07-07T20:01:29.895Z,100830.02
2018-07-07T20:03:35.428Z,100827.15
2018-07-07T20:05:40.913Z,100832.02
2018-07-07T20:07:46.629Z,100836.15
2018-07-07T20:09:52.020Z,100829.69
2018-07-07T20:11:57.200Z,100827.46
2018-07-07T20:14:02.851Z,100832.14
2018-07-07T20:16:11.833Z,100826.73
2018-07-07T20:18:17.568Z,100830.03
2018-07-07T20:20:34.764Z,100829.16
2018-07-07T20:22:40.246Z,100833.45
2018-07-07T20:24:46.012Z,100835.45
2018-07-07T20:26:56.585Z,100830.92
2018-07-07T20:29:01.988Z,100838.05
2018-07-07T20:31:07.436Z,100839.14
2018-07-07T20:33:12.899Z,100841.44
2018-07-07T20:35:18.489Z,100845.94
2018-07-07T20:37:23.885Z,100841.02
2018-07-07T20:39:29.392Z,100842.14
2018-07-07T20:41:34.787Z,100845.14
2018-07-07T20:43:40.176Z,100844.93
2018-07-07T20:45:45.912Z,100847.98
2018-07-07T20:47:51.403Z,100847.27
2018-07-07T20:49:56.891Z,100850.27
2018-07-07T20:52:02.405Z,100849.23
2018-07-07T20:54:07.917Z,100853.06
2018-07-07T20:56:13.351Z,100852.88
2018-07-07T20:58:18.724Z,100854.98
2018-07-07T21:00:24.139Z,100854.31
2018-07-07T21:02:29.640Z,100849.21
2018-07-07T21:04:35.081Z,100849.03
2018-07-07T21:06:40.516Z,100851.50
2018-07-07T21:08:45.912Z,100850.92
2018-07-07T21:10:51.402Z,100854.06
2018-07-07T21:12:56.879Z,100848.47
2018-07-07T21:15:02.305Z,100854.64
2018-07-07T21:17:07.696Z,100855.59
2018-07-07T21:19:13.198Z,100854.69
2018-07-07T21:21:18.850Z,100858.80
2018-07-07T21:23:24.461Z,100859.56
2018-07-07T21:25:29.909Z,100861.84
2018-07-07T21:27:35.370Z,100862.64
2018-07-07T21:29:40.913Z,100857.22
2018-07-07T21:31:46.347Z,100859.84
2018-07-07T21:33:51.808Z,100861.68
2018-07-07T21:35:57.301Z,100861.81
2018-07-07T21:38:02.729Z,100862.80
2018-07-07T21:40:08.390Z,100866.15
2018-07-07T21:42:13.826Z,100861.70
2018-07-07T21:44:19.330Z,100859.39
2018-07-07T21:46:24.733Z,100862.87
2018-07-07T21:48:30.252Z,100861.95
2018-07-07T21:50:35.644Z,100863.73
2018-07-07T21:52:41.060Z,100869.67
2018-07-07T21:54:46.605Z,100863.87
2018-07-07T21:56:55.126Z,100867.35
2018-07-07T21:59:05.958Z,100872.98
2018-07-07T22:01:32.418Z,100870.23
2018-07-07T22:03:43.099Z,100877.02
2018-07-07T22:05:53.652Z,100871.84
2018-07-07T22:07:59.045Z,100871.09
2018-07-07T22:10:04.458Z,100878.34
2018-07-07T22:12:09.862Z,100871.37
2018-07-07T22:14:15.259Z,100880.56
2018-07-07T22:16:20.761Z,100871.44
2018-07-07T22:18:26.369Z,100866.56
2018-07-07T22:20:34.704Z,100874.41
2018-07-07T22:22:40.167Z,100866.91
2018-07-07T22:24:46.158Z,100874.52
2018-07-07T22:26:56.164Z,100872.03
2018-07-07T22:29:01.639Z,100874.27
2018-07-07T22:31:07.117Z,100868.96
2018-07-07T22:33:30.770Z,100862.31
2018-07-07T22:35:41.329Z,100860.69
2018-07-07T22:37:46.415Z,100867.65
2018-07-07T22:39:51.801Z,100861.72
2018-07-07T22:41:58.294Z,100861.84
2018-07-07T22:44:03.698Z,100864.16
2018-07-07T22:46:09.099Z,100861.41
2018-07-07T22:48:14.468Z,100858.13
2018-07-07T22:50:19.882Z,100861.91
2018-07-07T22:52:25.292Z,100857.31
2018-07-07T22:54:30.814Z,100855.62
2018-07-07T22:56:36.240Z,100861.63
2018-07-07T22:58:41.608Z,100858.58
2018-07-07T23:00:46.948Z,100861.51
2018-07-07T23:02:52.373Z,100862.89
2018-07-07T23:04:57.781Z,100855.91
2018-07-07T23:07:03.146Z,100856.30
2018-07-07T23:09:09.961Z,100860.45
2018-07-07T23:11:15.283Z,100858.88
2018-07-07T23:13:20.635Z,100861.79
2018-07-07T23:15:26.010Z,100858.75
2018-07-07T23:17:31.389Z,100863.05
2018-07-07T23:19:36.889Z,100860.25
2018-07-07T23:21:42.305Z,100861.38
2018-07-07T23:23:47.649Z,100860.28
2018-07-07T23:25:52.964Z,100864.09
2018-07-07T23:27:58.362Z,100860.48
2018-07-07T23:30:03.785Z,100864.16
2018-07-07T23:32:09.091Z,100854.45
2018-07-07T23:34:14.434Z,100865.95
2018-07-07T23:36:19.991Z,100863.69
2018-07-07T23:38:25.544Z,100861.16
2018-07-07T23:40:31.057Z,100861.80
2018-07-07T23:42:36.708Z,100862.50
2018-07-07T23:44:42.162Z,100862.50
2018-07-07T23:46:47.625Z,100869.56
2018-07-07T23:48:52.983Z,100865.91
2018-07-07T23:50:58.429Z,100870.29
2018-07-07T23:53:03.915Z,100866.39
2018-07-07T23:55:09.342Z,100868.23
2018-07-07T23:57:14.840Z,100868.63
2018-07-07T23:59:20.263Z,100872.91
